Terminal Aerodrome Forecast
Issued by NWS

Home | Current Version | Previous Version | Text Only | Print | Product List | Glossary On
Versions: 1 2 3 4 5 6 7 8 9 10 11 12 13
890
FTUS42 KMLB 261120
TAFLEE
TAF
KLEE 261120Z 2612/2712 VRB04KT P6SM FEW025 FEW120 BKN250
     FM262100 06006KT P6SM VCTS SCT030CB BKN100
     FM270000 VRB05KT P6SM FEW030 SCT120 BKN250=

USA.gov is the U.S. government's official web portal to all federal, state and local government web resources and services.